Mineral Point, WI

06:24 CST le 28 février 2015 (GMT -0600)
KWIMINER1 | Change Station
CLOSE
Current Station
Stations météorologiques personnelles
Location: Mineral Point, WI
Altitude: 1066 ft
Stations météo à proximité

Alt. 1066 ft 42.85 °N, 90.18 °W | Updated 25 seconds ago

Partiellement nuageux
Partiellement nuageux
-15.8 ° F
Paraît -16 ° F
N
0.0
Vent Variable Vent de OSO
Gusts 0.0 mph

Aujourd'hui
Haut(e) -- | Bas -- ° F
--% Risque de précip.
Hier
Haut(e) -- | Bas -- ° F
Precip. -- pouce
6:38 AM 5:48 PM
Lune gibbeuse croissante, 77% visible
Pression 30.60 pouce
Visibilité 10.0 Miles terrestres
Nuages Ciel dégagé
Refroidissement éolien -16 ° F
Point de rosée -20 ° F
Humidité 83%
Précipitations 0.00 pouce
Profondeur de la couche neigeuse Non disponible.
UV 0 sur 12
Pollen .40 sur 12
Qualité de l'air Non disponible.
Flu Activity Non disponible.
METAR KMRJ 281210Z AUTO 17005KT 10SM CLR M20/M22 A3060 RMK AO2

More Conditions Fewer Conditions

Pression 30.60 pouce
Visibilité 10.0 Miles terrestres
Nuages Ciel dégagé
Refroidissement éolien -16 ° F
Point de rosée -20 ° F
Humidité 83%
Précipitations 0.00 pouce
Profondeur de la couche neigeuse Non disponible.
UV 0 sur 12
Pollen .40 sur 12
Qualité de l'air Non disponible.
Flu Activity Non disponible.
METAR KMRJ 281210Z AUTO 17005KT 10SM CLR M20/M22 A3060 RMK AO2

More Conditions Fewer Conditions

10-Day Weather Forecast

Almanac

Astronomie

Feb. 28, 2015 Lever Coucher
Temps réel
Crépuscule civil
Crépuscule nautique
Crépuscule astronomique
Lune
Durée de lumière visible
Longueur du jour
Tomorrow will be .
, % of the Moon is Illuminated

Extrêmes aujourd'hui

State Highs State Lows

Community

WunderPhotos

Upload Photos

1,800,998 Photos téléchargées !

WunderBlogs® & News

Nearby

Qualité de l'air

  Qualité de l'air Indice de la qualité de l'air Polluant
Not available.

Épaisseur de neige

Station Depth Altitude

Activité sismique

Ville Distance Mag. Time & Date
Minimum magnitude displayed is 2.5.

Températures des eaux côtières

Lieu Température

Stations météo à proximité